Time;durP1;ratioP1;P1;durP2;ratioP2;P2;SDS_P1;SDS_P2;PMS_P1;PMS_P2;Temp;Humidity;BMP_temperature;BMP_pressure;BME280_temperature;BME280_humidity;BME280_pressure;Samples;Min_cycle;Max_cycle;Signal;HPM_P1;HPM_P2
2023/11/20 00:00:49;;;;;;;8.10;2.15;;;13.60;90.90;;;;;;5051656;28;20032;-60
2023/11/20 00:03:15;;;;;;;5.82;2.30;;;13.60;90.90;;;;;;5050220;28;20081;-59
2023/11/20 00:05:41;;;;;;;4.95;2.10;;;13.60;90.90;;;;;;5050365;28;20029;-60
2023/11/20 00:08:07;;;;;;;8.02;1.52;;;13.50;91.00;;;;;;5053863;28;20116;-59
2023/11/20 00:10:34;;;;;;;8.00;2.60;;;13.50;91.00;;;;;;5049748;28;20036;-60
2023/11/20 00:12:59;;;;;;;9.48;1.92;;;13.50;91.00;;;;;;5045519;28;20020;-59
2023/11/20 00:15:25;;;;;;;9.75;2.38;;;13.50;91.00;;;;;;5047070;28;20033;-60
2023/11/20 00:17:51;;;;;;;4.88;1.60;;;13.50;91.00;;;;;;5048338;28;20029;-59
2023/11/20 00:20:16;;;;;;;2.20;1.50;;;13.60;90.90;;;;;;5049073;28;20124;-59
2023/11/20 00:22:46;;;;;;;4.85;2.28;;;13.60;90.90;;;;;;5051474;28;20032;-60
2023/11/20 00:25:12;;;;;;;5.82;1.67;;;13.60;90.90;;;;;;5055645;28;20509;-60
2023/11/20 00:27:37;;;;;;;10.15;1.75;;;13.60;90.90;;;;;;5050456;28;20061;-59
2023/11/20 00:30:05;;;;;;;8.57;3.15;;;13.60;90.90;;;;;;5047336;28;20021;-59
2023/11/20 00:32:31;;;;;;;2.58;1.23;;;13.50;90.90;;;;;;5049441;28;20086;-60
2023/11/20 00:34:56;;;;;;;15.50;2.45;;;13.60;90.90;;;;;;5052276;28;20021;-59
2023/11/20 00:37:22;;;;;;;10.27;1.83;;;13.50;90.90;;;;;;5046883;28;20048;-59
2023/11/20 00:39:48;;;;;;;6.93;1.88;;;13.50;90.90;;;;;;5045440;28;20040;-59
2023/11/20 00:42:14;;;;;;;7.32;1.95;;;13.50;90.90;;;;;;5047193;28;20036;-58
2023/11/20 00:44:39;;;;;;;9.05;2.33;;;13.50;90.90;;;;;;5044311;28;20036;-59
2023/11/20 00:47:06;;;;;;;2.38;1.50;;;13.50;90.90;;;;;;5053402;28;20037;-58
2023/11/20 00:49:32;;;;;;;6.13;1.85;;;13.50;90.90;;;;;;5051871;28;20407;-59
2023/11/20 00:51:57;;;;;;;8.70;2.00;;;13.50;90.90;;;;;;5052262;28;20029;-58
2023/11/20 00:54:23;;;;;;;4.45;1.65;;;13.40;91.00;;;;;;5050552;28;20044;-59
2023/11/20 00:56:49;;;;;;;2.38;1.52;;;13.40;91.00;;;;;;5053044;28;20044;-58
2023/11/20 00:59:15;;;;;;;4.35;1.65;;;13.40;91.00;;;;;;5060458;28;20071;-59
2023/11/20 01:01:40;;;;;;;6.72;1.50;;;13.40;91.00;;;;;;5051494;28;20123;-59
2023/11/20 01:04:07;;;;;;;3.20;1.58;;;13.50;91.00;;;;;;5063595;28;20040;-59
2023/11/20 01:06:40;;;;;;;6.32;2.22;;;13.50;90.90;;;;;;5052660;28;20041;-58
2023/11/20 01:09:06;;;;;;;5.47;1.83;;;13.50;90.90;;;;;;5047406;28;20473;-59
2023/11/20 01:11:33;;;;;;;5.97;1.38;;;13.40;90.90;;;;;;5050573;28;20040;-59
2023/11/20 01:14:01;;;;;;;5.25;1.48;;;13.40;90.90;;;;;;5057473;28;20132;-58
2023/11/20 01:16:28;;;;;;;3.58;1.45;;;13.40;90.90;;;;;;5058101;28;20473;-59
2023/11/20 01:18:54;;;;;;;6.65;1.40;;;13.40;91.00;;;;;;5054531;28;20106;-58
2023/11/20 01:21:20;;;;;;;5.20;1.25;;;13.40;91.00;;;;;;5052222;28;20041;-58
2023/11/20 01:23:46;;;;;;;3.60;1.75;;;13.40;91.00;;;;;;5053827;28;20040;-59
2023/11/20 01:26:12;;;;;;;3.60;1.33;;;13.30;91.00;;;;;;5050741;28;20037;-58
2023/11/20 01:28:38;;;;;;;5.15;1.40;;;13.30;91.00;;;;;;5054663;28;20475;-59
2023/11/20 01:31:05;;;;;;;5.65;1.25;;;13.30;91.10;;;;;;5034217;28;20052;-58
2023/11/20 01:33:30;;;;;;;6.07;1.75;;;13.20;91.10;;;;;;5048476;28;20036;-58
2023/11/20 01:35:56;;;;;;;4.05;1.58;;;13.20;91.10;;;;;;5056320;28;20447;-58
2023/11/20 01:38:22;;;;;;;7.45;1.88;;;13.20;91.20;;;;;;5060649;28;20029;-59
2023/11/20 01:40:54;;;;;;;5.95;1.42;;;13.20;91.40;;;;;;5049268;28;20024;-59
2023/11/20 01:43:20;;;;;;;4.63;1.05;;;13.20;91.20;;;;;;5047576;28;20030;-58
2023/11/20 01:45:47;;;;;;;2.70;1.83;;;13.20;91.20;;;;;;5048127;28;20060;-58
2023/11/20 01:48:14;;;;;;;2.92;1.33;;;13.20;91.40;;;;;;5059866;28;20025;-59
2023/11/20 01:50:40;;;;;;;2.20;1.20;;;13.20;91.10;;;;;;5055286;28;20114;-58
2023/11/20 01:53:09;;;;;;;0.88;0.80;;;13.20;91.10;;;;;;5055790;28;20144;-59
2023/11/20 01:55:35;;;;;;;2.17;1.13;;;13.30;91.10;;;;;;5055143;28;20039;-59
2023/11/20 01:58:01;;;;;;;6.18;2.33;;;13.30;91.10;;;;;;5052094;28;21453;-58
2023/11/20 02:00:27;;;;;;;4.07;1.90;;;13.30;91.00;;;;;;5058594;28;20443;-59
2023/11/20 02:02:54;;;;;;;4.22;1.30;;;13.30;91.00;;;;;;5050610;28;20057;-59
2023/11/20 02:05:20;;;;;;;3.72;2.17;;;13.30;91.00;;;;;;5048028;28;20041;-59
2023/11/20 02:07:45;;;;;;;3.30;1.27;;;13.30;91.00;;;;;;5051891;28;20033;-58
2023/11/20 02:10:11;;;;;;;3.97;1.85;;;13.20;91.00;;;;;;5057515;28;20061;-58
2023/11/20 02:12:37;;;;;;;3.53;1.50;;;13.20;91.00;;;;;;5054478;28;20083;-58
2023/11/20 02:15:05;;;;;;;5.13;1.67;;;13.20;91.00;;;;;;5054176;28;20270;-58
2023/11/20 02:17:32;;;;;;;6.47;2.13;;;13.20;91.00;;;;;;5050512;28;20041;-58
2023/11/20 02:19:58;;;;;;;9.25;2.30;;;13.20;91.10;;;;;;5043231;28;20120;-59
2023/11/20 02:22:24;;;;;;;8.10;1.85;;;13.10;91.10;;;;;;5056862;28;20115;-58
2023/11/20 02:24:51;;;;;;;5.53;1.65;;;13.10;91.20;;;;;;5053478;28;20033;-59
2023/11/20 02:27:44;;;;;;;5.65;1.67;;;13.10;91.10;;;;;;5041604;28;20116;-59
2023/11/20 02:30:11;;;;;;;5.22;1.80;;;13.10;91.00;;;;;;5049638;28;20032;-58
2023/11/20 02:32:37;;;;;;;6.05;1.40;;;13.10;91.10;;;;;;5052349;28;20025;-58
2023/11/20 02:35:04;;;;;;;3.45;1.85;;;13.10;91.00;;;;;;5047177;28;20386;-58
2023/11/20 02:37:30;;;;;;;2.35;1.00;;;13.10;91.00;;;;;;5037676;28;20457;-58
2023/11/20 02:39:56;;;;;;;7.80;1.55;;;13.00;91.00;;;;;;5048749;28;20032;-58
2023/11/20 02:42:22;;;;;;;5.90;1.42;;;13.00;91.00;;;;;;5055579;28;20381;-59
2023/11/20 02:44:50;;;;;;;5.72;1.08;;;13.00;91.00;;;;;;5051651;28;20029;-58
2023/11/20 02:47:16;;;;;;;10.65;1.40;;;13.00;91.00;;;;;;5055206;28;20476;-59
2023/11/20 02:49:42;;;;;;;1.48;0.80;;;13.00;91.00;;;;;;5055555;28;20036;-58
2023/11/20 02:52:09;;;;;;;5.00;1.52;;;13.10;91.10;;;;;;5051773;28;20041;-58
2023/11/20 02:54:37;;;;;;;4.28;1.15;;;13.10;90.90;;;;;;5059965;28;20078;-58
2023/11/20 02:57:03;;;;;;;3.13;1.15;;;13.10;90.80;;;;;;5052633;28;20060;-58
2023/11/20 02:59:29;;;;;;;3.50;1.83;;;13.10;90.80;;;;;;5051856;28;20116;-59
2023/11/20 03:01:56;;;;;;;11.07;2.13;;;13.10;90.70;;;;;;5052754;28;20100;-58
2023/11/20 03:04:22;;;;;;;1.23;0.85;;;13.00;90.70;;;;;;5046895;28;20025;-58
2023/11/20 03:06:47;;;;;;;6.70;2.50;;;13.00;90.70;;;;;;5056353;28;20507;-58
2023/11/20 03:09:13;;;;;;;4.07;1.00;;;13.00;90.70;;;;;;5052418;28;20150;-58
2023/11/20 03:11:39;;;;;;;11.13;1.17;;;13.00;90.70;;;;;;5059596;28;20590;-58
2023/11/20 03:14:05;;;;;;;7.90;1.90;;;12.90;90.70;;;;;;5063187;28;20094;-58
2023/11/20 03:16:31;;;;;;;4.82;1.30;;;12.90;90.80;;;;;;5051641;28;20541;-59
2023/11/20 03:19:01;;;;;;;4.40;1.70;;;12.90;90.80;;;;;;5062566;28;20060;-58
2023/11/20 03:21:27;;;;;;;4.03;1.27;;;12.90;90.80;;;;;;5057731;28;20107;-58
2023/11/20 03:23:53;;;;;;;2.75;1.80;;;13.00;90.80;;;;;;5055995;28;20529;-58
2023/11/20 03:26:23;;;;;;;3.42;1.35;;;12.90;90.70;;;;;;5056343;28;20102;-59
2023/11/20 03:28:49;;;;;;;4.07;1.38;;;12.90;90.80;;;;;;5050449;28;20025;-58
2023/11/20 03:31:15;;;;;;;5.32;1.25;;;12.90;90.80;;;;;;5051326;28;20488;-58
2023/11/20 03:33:42;;;;;;;7.97;1.85;;;12.90;90.80;;;;;;5051032;28;20031;-58
2023/11/20 03:36:08;;;;;;;2.33;1.25;;;12.90;90.90;;;;;;5052806;28;20025;-58
2023/11/20 03:38:34;;;;;;;3.13;1.27;;;12.80;90.90;;;;;;5056334;28;20032;-58
2023/11/20 03:41:00;;;;;;;4.80;1.15;;;12.90;90.90;;;;;;5047600;28;20427;-58
2023/11/20 03:43:28;;;;;;;2.30;1.08;;;12.90;90.90;;;;;;5051707;28;20029;-58
2023/11/20 03:45:54;;;;;;;7.65;1.67;;;12.90;90.90;;;;;;5058739;28;20032;-58
2023/11/20 03:48:19;;;;;;;4.20;1.80;;;13.00;90.80;;;;;;5059543;28;20051;-58
2023/11/20 03:50:45;;;;;;;3.97;1.60;;;13.00;91.10;;;;;;5060409;28;20385;-59
2023/11/20 03:53:10;;;;;;;6.43;1.50;;;13.00;90.80;;;;;;5062504;28;20115;-58
2023/11/20 03:55:36;;;;;;;2.90;1.38;;;13.00;90.70;;;;;;5055755;28;20072;-58
2023/11/20 03:58:03;;;;;;;2.50;1.33;;;13.00;90.70;;;;;;5054840;28;20040;-58
2023/11/20 04:00:32;;;;;;;3.17;1.80;;;13.10;90.70;;;;;;5054389;28;20028;-58
2023/11/20 04:03:02;;;;;;;6.95;2.25;;;13.10;90.60;;;;;;5051937;28;20094;-58
2023/11/20 04:05:27;;;;;;;11.43;2.40;;;13.10;90.60;;;;;;5048500;28;20384;-59
2023/11/20 04:07:54;;;;;;;3.13;1.23;;;13.10;90.60;;;;;;5051757;28;20025;-59
2023/11/20 04:10:19;;;;;;;3.88;1.63;;;13.10;90.60;;;;;;5049528;28;20398;-58
2023/11/20 04:12:46;;;;;;;3.58;1.40;;;13.00;90.50;;;;;;5043665;28;20081;-58
2023/11/20 04:15:12;;;;;;;3.65;1.95;;;13.00;90.50;;;;;;5050943;28;20039;-58
2023/11/20 04:17:38;;;;;;;2.42;1.48;;;13.00;90.40;;;;;;5058362;28;20025;-58
2023/11/20 04:20:05;;;;;;;5.57;1.45;;;13.00;90.40;;;;;;5055210;28;20032;-58
2023/11/20 04:22:31;;;;;;;4.15;1.63;;;13.10;90.40;;;;;;5047761;28;20033;-58
2023/11/20 04:24:59;;;;;;;4.32;1.63;;;13.10;90.30;;;;;;5056703;28;20025;-58
2023/11/20 04:27:25;;;;;;;4.18;1.50;;;13.00;90.30;;;;;;5045636;28;20037;-58
2023/11/20 04:29:50;;;;;;;7.93;2.20;;;13.00;90.20;;;;;;5052303;28;20021;-58
2023/11/20 04:32:16;;;;;;;4.47;1.52;;;13.00;90.10;;;;;;5048644;28;20599;-58
2023/11/20 04:34:42;;;;;;;5.35;1.58;;;13.00;90.10;;;;;;5043950;28;20036;-59
2023/11/20 04:37:08;;;;;;;3.55;1.52;;;13.00;90.00;;;;;;5051449;28;20130;-59
2023/11/20 04:39:33;;;;;;;8.55;1.80;;;13.00;90.00;;;;;;5050884;28;20028;-58
2023/11/20 04:41:59;;;;;;;5.10;1.10;;;13.00;90.00;;;;;;5047749;28;20036;-59
2023/11/20 04:44:25;;;;;;;3.05;1.10;;;13.00;89.70;;;;;;5052204;28;20039;-58
2023/11/20 04:46:51;;;;;;;5.35;2.25;;;13.00;89.70;;;;;;5050954;28;20029;-58
2023/11/20 04:49:16;;;;;;;3.67;1.52;;;13.00;89.50;;;;;;5048673;28;20040;-58
2023/11/20 04:51:42;;;;;;;3.92;1.73;;;13.00;89.50;;;;;;5052196;28;20047;-58
2023/11/20 04:54:08;;;;;;;8.43;1.40;;;13.00;89.30;;;;;;5061612;28;20119;-59
2023/11/20 04:56:34;;;;;;;2.78;1.40;;;13.00;89.30;;;;;;5051827;28;20474;-59
2023/11/20 04:59:00;;;;;;;2.67;1.27;;;13.00;89.30;;;;;;5046588;28;20029;-59
2023/11/20 05:01:26;;;;;;;6.15;1.40;;;13.00;89.30;;;;;;5050915;28;20028;-59
2023/11/20 05:03:52;;;;;;;5.10;1.63;;;13.00;89.20;;;;;;5048018;28;20095;-59
2023/11/20 05:06:18;;;;;;;7.47;2.13;;;13.00;89.10;;;;;;5033690;28;20065;-58
2023/11/20 05:08:43;;;;;;;3.03;1.30;;;13.00;89.10;;;;;;5054814;28;20632;-58
2023/11/20 05:11:09;;;;;;;3.30;1.23;;;13.00;89.20;;;;;;5050197;28;20041;-58
2023/11/20 05:13:35;;;;;;;6.93;1.80;;;13.00;89.10;;;;;;5053147;28;20180;-58
2023/11/20 05:16:01;;;;;;;7.90;1.85;;;13.00;89.00;;;;;;5056547;28;20035;-58
2023/11/20 05:18:26;;;;;;;3.83;0.82;;;13.00;89.00;;;;;;5043455;28;20120;-59
2023/11/20 05:20:53;;;;;;;5.00;1.90;;;13.00;89.00;;;;;;5051510;28;20033;-58
2023/11/20 05:23:19;;;;;;;3.05;1.38;;;12.90;89.00;;;;;;5044545;28;20040;-58
2023/11/20 05:25:45;;;;;;;5.40;1.40;;;13.00;88.90;;;;;;5043234;28;20029;-58
2023/11/20 05:28:11;;;;;;;5.18;1.13;;;13.00;88.90;;;;;;5051734;28;20379;-59
2023/11/20 05:30:38;;;;;;;2.28;1.02;;;13.00;88.80;;;;;;5053345;28;20037;-59
2023/11/20 05:33:04;;;;;;;6.65;1.23;;;13.00;88.80;;;;;;5042557;28;20040;-59
2023/11/20 05:35:29;;;;;;;12.55;1.88;;;13.10;88.70;;;;;;5049296;28;20040;-59
2023/11/20 05:37:55;;;;;;;8.85;2.15;;;13.10;88.60;;;;;;5054726;28;20029;-58
2023/11/20 05:40:21;;;;;;;5.38;1.65;;;13.00;88.30;;;;;;5058448;28;20456;-59
2023/11/20 05:42:47;;;;;;;3.90;0.90;;;13.00;88.40;;;;;;5044155;28;20051;-58
2023/11/20 05:45:13;;;;;;;3.85;1.45;;;13.00;88.50;;;;;;5051297;28;20467;-58
2023/11/20 05:47:38;;;;;;;4.25;1.77;;;13.00;88.50;;;;;;5034134;28;20036;-58
2023/11/20 05:50:05;;;;;;;7.18;1.58;;;13.00;88.30;;;;;;5055390;28;20022;-58
2023/11/20 05:52:32;;;;;;;4.55;1.40;;;13.00;88.30;;;;;;5047430;28;20032;-58
2023/11/20 05:54:58;;;;;;;3.30;1.40;;;13.00;88.20;;;;;;5044870;28;20534;-59
2023/11/20 05:57:24;;;;;;;7.85;2.17;;;12.90;88.20;;;;;;5046907;28;20030;-58
2023/11/20 05:59:49;;;;;;;19.65;3.47;;;12.90;88.10;;;;;;5048210;28;20126;-58
2023/11/20 06:02:15;;;;;;;4.63;1.83;;;12.90;88.10;;;;;;5054328;28;20024;-59
2023/11/20 06:04:41;;;;;;;6.55;2.63;;;12.90;88.30;;;;;;5048607;28;20060;-58
2023/11/20 06:07:07;;;;;;;6.18;1.48;;;12.90;88.20;;;;;;5051605;28;20029;-59
2023/11/20 06:09:33;;;;;;;8.75;1.63;;;12.80;88.50;;;;;;5049021;28;20053;-59
2023/11/20 06:11:58;;;;;;;7.80;1.83;;;12.80;88.20;;;;;;5048988;28;20039;-58
2023/11/20 06:14:24;;;;;;;3.47;1.88;;;12.80;88.20;;;;;;5052194;28;20597;-59
2023/11/20 06:16:50;;;;;;;4.32;1.17;;;12.80;88.40;;;;;;5061255;28;20041;-59
2023/11/20 06:19:15;;;;;;;8.95;1.88;;;12.80;88.50;;;;;;5055543;28;20071;-59
2023/11/20 06:21:49;;;;;;;8.43;1.50;;;12.80;88.50;;;;;;5059907;28;20041;-59
2023/11/20 06:24:15;;;;;;;5.45;1.38;;;12.80;88.30;;;;;;5054220;28;20032;-59
2023/11/20 06:26:41;;;;;;;13.00;1.80;;;12.80;88.30;;;;;;5055047;28;20033;-59
2023/11/20 06:29:07;;;;;;;10.20;2.20;;;12.80;88.30;;;;;;5051992;28;20524;-59
2023/11/20 06:31:33;;;;;;;3.70;1.40;;;12.80;88.30;;;;;;5053560;28;20033;-58
2023/11/20 06:33:59;;;;;;;8.95;2.08;;;12.80;88.30;;;;;;5055488;28;20064;-59
2023/11/20 06:36:24;;;;;;;4.70;2.13;;;12.80;88.20;;;;;;5055449;28;20029;-59
2023/11/20 06:38:50;;;;;;;4.95;1.55;;;12.80;88.10;;;;;;5063099;28;20029;-59
2023/11/20 06:41:19;;;;;;;9.95;2.58;;;12.80;88.20;;;;;;5049171;28;20029;-59
2023/11/20 06:43:45;;;;;;;11.43;1.80;;;12.80;88.00;;;;;;5046625;28;21271;-59
2023/11/20 06:46:21;;;;;;;2.17;0.80;;;12.70;88.00;;;;;;5053685;28;20037;-59
2023/11/20 06:48:47;;;;;;;3.33;1.48;;;12.80;88.20;;;;;;5051628;28;20507;-59
2023/11/20 06:51:14;;;;;;;9.18;1.63;;;12.70;88.20;;;;;;5054910;28;20035;-59
2023/11/20 06:53:39;;;;;;;4.22;1.40;;;12.70;88.20;;;;;;5054685;28;20577;-58
2023/11/20 06:56:06;;;;;;;3.00;1.30;;;12.70;88.30;;;;;;5051470;28;20334;-59
2023/11/20 06:58:35;;;;;;;4.03;1.63;;;12.70;88.20;;;;;;5051355;28;20035;-58
2023/11/20 07:01:03;;;;;;;4.72;1.20;;;12.80;88.20;;;;;;5051236;28;20065;-59
2023/11/20 07:03:29;;;;;;;4.05;2.08;;;12.80;87.90;;;;;;5054360;28;20419;-59
2023/11/20 07:05:54;;;;;;;4.53;1.73;;;12.80;87.90;;;;;;5053062;28;20071;-59
2023/11/20 07:08:22;;;;;;;10.10;2.28;;;12.70;87.90;;;;;;5054305;28;20053;-58
2023/11/20 07:10:48;;;;;;;13.38;2.15;;;12.70;88.00;;;;;;5062368;28;20039;-58
2023/11/20 07:13:14;;;;;;;3.25;1.95;;;12.70;88.00;;;;;;5058119;28;20437;-59
2023/11/20 07:15:40;;;;;;;17.67;2.05;;;12.70;88.00;;;;;;5055473;28;20535;-58
2023/11/20 07:18:09;;;;;;;5.85;1.48;;;12.70;88.00;;;;;;5054859;28;20104;-59
2023/11/20 07:20:35;;;;;;;7.78;2.50;;;12.70;88.00;;;;;;5056557;28;20025;-59
2023/11/20 07:23:03;;;;;;;5.88;1.70;;;12.70;88.10;;;;;;5055654;28;20023;-59
2023/11/20 07:25:35;;;;;;;6.63;1.48;;;12.60;88.20;;;;;;5058966;28;20443;-58
2023/11/20 07:28:02;;;;;;;6.60;1.13;;;12.60;88.40;;;;;;5060354;28;20033;-58
2023/11/20 07:30:32;;;;;;;5.30;1.73;;;12.60;88.50;;;;;;5053423;28;20021;-58
2023/11/20 07:32:58;;;;;;;4.68;1.58;;;12.60;88.50;;;;;;5056376;28;20021;-58
2023/11/20 07:35:24;;;;;;;8.73;2.05;;;12.60;88.50;;;;;;5050983;28;20037;-59
2023/11/20 07:37:50;;;;;;;8.43;2.45;;;12.60;88.50;;;;;;5051821;28;20028;-59
2023/11/20 07:40:18;;;;;;;5.80;2.38;;;12.50;88.50;;;;;;5049610;28;20040;-59
2023/11/20 07:42:44;;;;;;;10.38;1.35;;;12.60;88.60;;;;;;5050618;28;20553;-59
2023/11/20 07:45:13;;;;;;;4.72;1.70;;;12.50;88.60;;;;;;5047364;28;20035;-59
2023/11/20 07:47:40;;;;;;;11.23;2.60;;;12.50;88.60;;;;;;5055669;28;20102;-59
2023/11/20 07:50:06;;;;;;;5.53;1.67;;;12.50;88.60;;;;;;5058508;28;20029;-59
2023/11/20 07:52:33;;;;;;;6.13;1.83;;;12.50;88.70;;;;;;5049981;28;20024;-58
2023/11/20 07:54:59;;;;;;;11.13;1.90;;;12.50;88.80;;;;;;5053218;28;20033;-59
2023/11/20 07:57:25;;;;;;;7.65;2.75;;;12.50;88.70;;;;;;5052891;28;20029;-59
2023/11/20 07:59:52;;;;;;;3.80;1.95;;;12.50;88.60;;;;;;5057109;28;20070;-59
2023/11/20 08:02:19;;;;;;;7.68;2.10;;;12.60;88.50;;;;;;5055078;28;20086;-59
2023/11/20 08:04:46;;;;;;;5.63;1.35;;;12.50;88.30;;;;;;5052450;28;20086;-59
2023/11/20 08:07:13;;;;;;;7.95;2.30;;;12.50;88.20;;;;;;5042236;28;20037;-59
2023/11/20 08:09:39;;;;;;;15.85;1.42;;;12.60;88.20;;;;;;5055398;28;20128;-59
2023/11/20 08:12:05;;;;;;;7.32;2.42;;;12.60;88.00;;;;;;5056864;28;20187;-59
2023/11/20 08:14:31;;;;;;;4.82;2.03;;;12.60;88.00;;;;;;5051459;28;20458;-59
2023/11/20 08:16:58;;;;;;;7.30;2.17;;;12.70;87.90;;;;;;5052191;28;20108;-59
2023/11/20 08:19:24;;;;;;;9.85;2.42;;;12.70;87.70;;;;;;5049722;28;20393;-59
2023/11/20 08:21:50;;;;;;;5.80;2.17;;;12.70;87.30;;;;;;5052307;28;20039;-59
2023/11/20 08:24:15;;;;;;;2.70;1.42;;;12.60;87.10;;;;;;5046589;28;20033;-59
2023/11/20 08:26:42;;;;;;;10.95;2.53;;;12.70;87.30;;;;;;5045222;28;20531;-59
2023/11/20 08:29:08;;;;;;;4.85;1.90;;;12.60;87.20;;;;;;5038936;28;20032;-59
2023/11/20 08:31:35;;;;;;;3.13;1.75;;;12.70;87.10;;;;;;5051192;28;20040;-59
2023/11/20 08:34:01;;;;;;;5.60;2.20;;;12.70;87.20;;;;;;5050221;28;20021;-59
2023/11/20 08:36:26;;;;;;;8.68;2.80;;;12.70;87.00;;;;;;5052264;28;20064;-59
2023/11/20 08:38:52;;;;;;;4.40;1.77;;;12.70;86.70;;;;;;5052867;28;20083;-59
2023/11/20 08:41:18;;;;;;;7.90;2.35;;;12.70;86.70;;;;;;5048837;28;20475;-59
2023/11/20 08:43:43;;;;;;;5.10;2.13;;;12.60;86.60;;;;;;5041111;28;20033;-59
2023/11/20 08:46:09;;;;;;;5.45;2.25;;;12.60;86.40;;;;;;5040474;28;20125;-59
2023/11/20 08:48:35;;;;;;;11.60;2.40;;;12.60;86.50;;;;;;5042856;28;20137;-60
2023/11/20 08:51:01;;;;;;;10.15;1.98;;;12.60;86.70;;;;;;5045441;28;20057;-59
2023/11/20 08:53:26;;;;;;;7.45;2.25;;;12.70;86.50;;;;;;5033679;28;20489;-59
2023/11/20 08:55:52;;;;;;;3.85;1.50;;;12.60;86.20;;;;;;5038452;28;20033;-59
2023/11/20 08:58:18;;;;;;;6.97;2.40;;;12.70;86.40;;;;;;5026351;28;20032;-59
2023/11/20 09:00:44;;;;;;;5.13;1.63;;;12.60;86.30;;;;;;5035226;28;20029;-60
2023/11/20 09:03:11;;;;;;;6.57;2.30;;;12.70;86.30;;;;;;5043519;28;20037;-60
2023/11/20 09:05:40;;;;;;;9.40;2.95;;;12.70;86.00;;;;;;5041592;28;20044;-61
2023/11/20 09:08:06;;;;;;;9.48;2.38;;;12.70;86.10;;;;;;5049406;28;20040;-59
2023/11/20 09:10:32;;;;;;;10.73;2.45;;;12.70;85.80;;;;;;5030644;28;20683;-59
2023/11/20 09:12:57;;;;;;;8.25;2.35;;;12.70;85.90;;;;;;5032233;28;20032;-61
2023/11/20 09:15:24;;;;;;;4.80;2.10;;;12.80;85.90;;;;;;5028044;28;20056;-60
2023/11/20 09:17:50;;;;;;;9.35;2.05;;;12.80;85.70;;;;;;5045217;28;20086;-60
2023/11/20 09:20:20;;;;;;;5.57;1.83;;;12.80;85.30;;;;;;5050713;28;20037;-58
2023/11/20 09:22:47;;;;;;;5.07;1.98;;;12.90;86.00;;;;;;5048630;28;20545;-59
2023/11/20 09:25:13;;;;;;;13.32;2.47;;;12.90;85.40;;;;;;5044250;28;20060;-59
2023/11/20 09:27:38;;;;;;;8.73;3.70;;;12.90;85.30;;;;;;5039503;28;20436;-60
2023/11/20 09:30:06;;;;;;;7.63;1.88;;;13.00;85.20;;;;;;5039383;28;20446;-60
2023/11/20 09:32:32;;;;;;;3.88;1.75;;;13.00;84.50;;;;;;5047401;28;20486;-60
2023/11/20 09:34:58;;;;;;;5.13;1.45;;;13.00;84.40;;;;;;5034343;28;20021;-60
2023/11/20 09:37:24;;;;;;;3.90;1.85;;;13.00;84.50;;;;;;5039841;28;20120;-60
2023/11/20 09:39:51;;;;;;;9.52;2.30;;;13.00;84.60;;;;;;5036100;28;20144;-60
2023/11/20 09:42:22;;;;;;;6.80;1.92;;;13.00;84.50;;;;;;5044659;28;20033;-60
2023/11/20 09:44:49;;;;;;;11.50;2.65;;;13.00;84.30;;;;;;5043025;28;20028;-60
2023/11/20 09:47:15;;;;;;;10.27;2.08;;;12.90;84.60;;;;;;5034913;28;20464;-60
2023/11/20 09:49:52;;;;;;;3.80;1.35;;;13.00;84.80;;;;;;5037964;28;20080;-60
2023/11/20 09:52:18;;;;;;;6.90;2.13;;;13.00;84.70;;;;;;5034041;28;20039;-57
2023/11/20 09:54:44;;;;;;;4.00;1.63;;;13.10;84.60;;;;;;5027320;28;20032;-57
2023/11/20 09:57:10;;;;;;;5.15;2.00;;;13.10;84.50;;;;;;5034929;28;20041;-57
2023/11/20 09:59:36;;;;;;;9.85;2.72;;;13.10;84.50;;;;;;5036283;28;20451;-56
2023/11/20 10:02:02;;;;;;;6.72;2.22;;;13.10;84.40;;;;;;5049143;28;20036;-57
2023/11/20 10:04:30;;;;;;;5.10;1.77;;;13.10;84.50;;;;;;5036991;28;20033;-58
2023/11/20 10:06:55;;;;;;;12.50;2.40;;;13.20;84.60;;;;;;5036687;28;20521;-59
2023/11/20 10:09:22;;;;;;;4.03;1.90;;;13.40;83.70;;;;;;5055846;28;20081;-59
2023/11/20 10:11:48;;;;;;;5.68;3.08;;;13.30;83.40;;;;;;5039481;28;20024;-60
2023/11/20 10:14:23;;;;;;;8.90;2.35;;;13.40;83.30;;;;;;5045611;28;20119;-60
2023/11/20 10:16:52;;;;;;;12.57;2.65;;;13.60;83.30;;;;;;5033961;28;20385;-60
2023/11/20 10:19:18;;;;;;;5.03;1.95;;;13.80;81.80;;;;;;5043711;28;20029;-60
2023/11/20 10:21:47;;;;;;;11.07;2.65;;;14.30;81.50;;;;;;5041047;28;20029;-60
2023/11/20 10:24:16;;;;;;;4.55;2.55;;;14.90;79.40;;;;;;5048022;28;20067;-60
2023/11/20 10:26:42;;;;;;;10.30;2.30;;;15.50;76.60;;;;;;5036192;28;20033;-60
2023/11/20 10:29:09;;;;;;;10.52;2.20;;;15.90;74.90;;;;;;5028387;28;20034;-60
2023/11/20 10:31:45;;;;;;;8.02;2.80;;;15.90;74.30;;;;;;5047495;28;20330;-60
2023/11/20 10:34:12;;;;;;;7.47;2.88;;;16.10;74.60;;;;;;5032598;28;20067;-60
2023/11/20 10:36:38;;;;;;;8.10;2.17;;;15.90;73.90;;;;;;5039295;28;20079;-60
2023/11/20 10:39:05;;;;;;;13.25;3.60;;;15.50;74.70;;;;;;5029170;28;20494;-60
2023/11/20 10:41:32;;;;;;;9.57;2.88;;;14.90;75.70;;;;;;5034584;28;20104;-60
2023/11/20 10:44:01;;;;;;;7.70;2.78;;;14.40;77.50;;;;;;5039831;28;20839;-60
2023/11/20 10:46:27;;;;;;;7.15;2.15;;;14.00;78.70;;;;;;5044602;28;20028;-60
2023/11/20 10:48:55;;;;;;;8.48;2.80;;;13.70;79.80;;;;;;5030752;28;20036;-60
2023/11/20 10:51:22;;;;;;;5.93;2.55;;;13.60;80.40;;;;;;5032188;28;20488;-60
2023/11/20 10:54:02;;;;;;;9.73;2.67;;;13.50;80.90;;;;;;5042679;28;20450;-60
2023/11/20 10:56:32;;;;;;;5.07;2.15;;;13.50;81.20;;;;;;5033450;28;20591;-60
2023/11/20 10:59:00;;;;;;;4.57;1.65;;;13.50;81.40;;;;;;5047281;28;20390;-60
2023/11/20 11:01:30;;;;;;;4.97;2.28;;;13.50;81.40;;;;;;5055279;28;20175;-60
2023/11/20 11:03:59;;;;;;;7.93;2.45;;;13.60;81.30;;;;;;5043877;28;20029;-60
2023/11/20 11:06:26;;;;;;;4.13;1.60;;;13.60;81.20;;;;;;5048177;28;20399;-60
2023/11/20 11:08:56;;;;;;;8.20;2.60;;;13.70;81.50;;;;;;5054691;28;20048;-60
2023/11/20 11:11:24;;;;;;;3.47;1.63;;;13.60;81.30;;;;;;5048479;28;20025;-60
2023/11/20 11:13:52;;;;;;;6.85;2.85;;;13.70;81.40;;;;;;5049504;28;20033;-60
2023/11/20 11:16:27;;;;;;;7.40;2.75;;;13.70;81.20;;;;;;5043966;28;20037;-60
2023/11/20 11:19:06;;;;;;;6.47;3.17;;;13.70;80.50;;;;;;5055101;28;20027;-60
2023/11/20 11:21:43;;;;;;;14.48;3.50;;;13.80;79.80;;;;;;5052754;28;20025;-60
2023/11/20 11:24:11;;;;;;;7.78;2.97;;;13.80;79.70;;;;;;5051799;28;20053;-60
2023/11/20 11:26:53;;;;;;;5.38;2.53;;;14.10;79.10;;;;;;5048799;28;20076;-60
2023/11/20 11:29:29;;;;;;;5.85;2.08;;;15.00;76.20;;;;;;5054389;28;20033;-60
2023/11/20 11:32:14;;;;;;;5.25;2.10;;;15.80;75.20;;;;;;5044700;28;20029;-60
2023/11/20 11:35:17;;;;;;;11.02;2.75;;;17.60;71.00;;;;;;5045036;28;20041;-60
2023/11/20 11:37:54;;;;;;;9.23;2.33;;;19.40;64.90;;;;;;5052869;28;20477;-61
2023/11/20 11:40:36;;;;;;;4.22;2.35;;;20.60;60.30;;;;;;5039205;28;20020;-60
2023/11/20 11:43:13;;;;;;;4.60;1.63;;;21.40;59.20;;;;;;5054670;28;20384;-61
2023/11/20 11:45:44;;;;;;;3.60;2.05;;;22.60;58.30;;;;;;5046809;28;20025;-61
2023/11/20 11:48:10;;;;;;;7.68;1.67;;;23.40;54.30;;;;;;5051513;28;20423;-61
2023/11/20 11:50:36;;;;;;;5.68;2.03;;;23.00;53.20;;;;;;5058398;28;20051;-61
2023/11/20 11:53:03;;;;;;;3.45;1.33;;;21.60;55.90;;;;;;5054745;28;20021;-61
2023/11/20 11:55:39;;;;;;;4.30;1.83;;;20.10;58.80;;;;;;5051516;28;20040;-61
2023/11/20 11:58:12;;;;;;;12.10;2.22;;;18.70;60.60;;;;;;5057454;28;20024;-61
2023/11/20 12:00:38;;;;;;;3.58;1.85;;;17.60;63.80;;;;;;5045694;28;20037;-60
2023/11/20 12:03:13;;;;;;;7.28;2.30;;;16.80;65.90;;;;;;5061669;28;20120;-60
2023/11/20 12:06:00;;;;;;;1.45;1.05;;;16.20;67.30;;;;;;5049685;28;20028;-60
2023/11/20 12:08:33;;;;;;;5.15;2.15;;;15.80;68.70;;;;;;5058236;28;20051;-60
2023/11/20 12:11:00;;;;;;;6.20;1.75;;;15.50;69.40;;;;;;5052077;28;20041;-60
2023/11/20 12:13:29;;;;;;;5.00;1.65;;;15.20;70.10;;;;;;5054815;28;20075;-60
2023/11/20 12:16:07;;;;;;;2.58;1.27;;;14.90;71.00;;;;;;5046340;28;20033;-60
2023/11/20 12:18:37;;;;;;;7.95;2.03;;;14.90;71.50;;;;;;5058400;28;20361;-60
2023/11/20 12:21:05;;;;;;;4.43;1.70;;;14.70;71.70;;;;;;5058291;28;20535;-60
2023/11/20 12:23:32;;;;;;;1.05;0.90;;;14.60;71.90;;;;;;5053664;28;20033;-60
2023/11/20 12:25:59;;;;;;;8.65;2.45;;;14.60;72.20;;;;;;5057800;28;20039;-60
2023/11/20 12:28:33;;;;;;;8.85;1.85;;;14.70;73.00;;;;;;5049300;28;20055;-61
2023/11/20 12:31:04;;;;;;;6.25;1.60;;;16.00;71.50;;;;;;5050788;28;20438;-61
2023/11/20 12:33:35;;;;;;;2.22;1.10;;;17.60;67.30;;;;;;5043651;28;20026;-61
2023/11/20 12:36:01;;;;;;;6.10;2.35;;;19.10;62.20;;;;;;5057275;28;20033;-61
2023/11/20 12:38:33;;;;;;;3.70;1.63;;;19.90;58.60;;;;;;5051121;28;20017;-61
2023/11/20 12:41:03;;;;;;;1.55;1.23;;;20.20;58.30;;;;;;5047457;28;20060;-61
2023/11/20 12:43:29;;;;;;;4.15;2.15;;;20.30;57.90;;;;;;5057144;28;20462;-61
2023/11/20 12:45:56;;;;;;;5.28;1.45;;;20.00;58.60;;;;;;5048254;28;20029;-61